Time;durP1;ratioP1;P1;durP2;ratioP2;P2;SDS_P1;SDS_P2;PMS_P1;PMS_P2;Temp;Humidity;BMP_temperature;BMP_pressure;BME280_temperature;BME280_humidity;BME280_pressure;Samples;Min_cycle;Max_cycle;Signal;HPM_P1;HPM_P2
2021/08/25 00:00:46;;;;;;;15.07;4.40;;;;;;;15.56;73.47;100859.94;5043532;28;20040;-77
2021/08/25 00:03:12;;;;;;;10.05;3.28;;;;;;;15.56;73.83;100843.41;5043522;28;20021;-79
2021/08/25 00:05:38;;;;;;;12.40;4.07;;;;;;;15.56;73.80;100835.56;5043618;28;20035;-78
2021/08/25 00:08:04;;;;;;;19.13;5.05;;;;;;;15.57;73.61;100835.50;5043341;28;20514;-77
2021/08/25 00:10:29;;;;;;;13.18;4.03;;;;;;;15.59;73.87;100828.47;5043255;28;20076;-78
2021/08/25 00:12:55;;;;;;;12.10;3.03;;;;;;;15.53;74.19;100801.59;5043405;28;20358;-81
2021/08/25 00:15:20;;;;;;;14.75;4.93;;;;;;;15.54;74.15;100822.50;5043232;28;20030;-76
2021/08/25 00:17:46;;;;;;;17.95;4.15;;;;;;;15.54;74.21;100804.19;5043504;28;20466;-76
2021/08/25 00:20:11;;;;;;;15.13;3.88;;;;;;;15.46;74.31;100790.41;5041666;28;20264;-79
2021/08/25 00:22:37;;;;;;;11.77;3.83;;;;;;;15.52;74.77;100799.88;5041816;28;20025;-79
2021/08/25 00:25:03;;;;;;;11.30;3.70;;;;;;;15.48;74.80;100783.38;5041994;28;20029;-76
2021/08/25 00:27:28;;;;;;;12.63;3.38;;;;;;;15.51;74.56;100782.44;5043139;28;20021;-76
2021/08/25 00:29:53;;;;;;;15.80;4.38;;;;;;;15.52;74.60;100774.56;5043266;28;20026;-78
2021/08/25 00:32:19;;;;;;;16.27;4.82;;;;;;;15.55;74.56;100779.72;5042070;28;20026;-77
2021/08/25 00:34:44;;;;;;;15.40;4.65;;;;;;;15.54;74.82;100787.63;5043303;28;20071;-77
2021/08/25 00:37:10;;;;;;;13.90;4.32;;;;;;;15.61;74.65;100800.53;5043414;28;20028;-79
2021/08/25 00:39:36;;;;;;;18.92;4.57;;;;;;;15.60;75.03;100801.44;5047052;28;20044;-77
2021/08/25 00:42:01;;;;;;;12.40;3.58;;;;;;;15.64;75.07;100793.50;5046804;28;20371;-78
2021/08/25 00:44:27;;;;;;;10.98;4.18;;;;;;;15.60;75.09;100763.91;5046927;28;20100;-77
2021/08/25 00:46:53;;;;;;;14.02;4.65;;;;;;;15.65;74.97;100766.41;5046715;28;20094;-76
2021/08/25 00:49:22;;;;;;;17.40;4.65;;;;;;;15.63;75.42;100766.47;5047103;28;20060;-76
2021/08/25 00:51:48;;;;;;;16.85;4.88;;;;;;;15.64;75.24;100765.56;5045687;28;20112;-77
2021/08/25 00:54:15;;;;;;;15.50;5.25;;;;;;;15.64;75.35;100767.34;5046889;28;20355;-77
2021/08/25 00:56:43;;;;;;;13.52;4.88;;;;;;;15.66;75.29;100758.53;5047133;28;20030;-77
2021/08/25 00:59:09;;;;;;;15.07;4.30;;;;;;;15.68;75.50;100758.50;5047199;28;20064;-79
2021/08/25 01:01:50;;;;;;;15.77;4.68;;;;;;;15.64;75.77;100752.47;5046828;28;20343;-77
2021/08/25 01:04:24;;;;;;;19.50;5.63;;;;;;;15.64;75.64;100741.16;5046651;28;20108;-76
2021/08/25 01:06:49;;;;;;;13.55;5.18;;;;;;;15.59;75.81;100729.03;5046659;28;20025;-75
2021/08/25 01:09:15;;;;;;;11.73;4.80;;;;;;;15.58;76.14;100729.06;5046376;28;20078;-77
2021/08/25 01:11:47;;;;;;;20.27;5.03;;;;;;;15.58;76.10;100706.38;5046338;28;20017;-76
2021/08/25 01:14:12;;;;;;;18.02;4.63;;;;;;;15.56;76.26;100697.69;5046482;28;20021;-76
2021/08/25 01:16:40;;;;;;;21.80;5.15;;;;;;;15.57;76.58;100714.28;5046393;28;20033;-76
2021/08/25 01:19:09;;;;;;;14.23;4.68;;;;;;;15.64;76.40;100709.75;5046311;28;20018;-76
2021/08/25 01:21:35;;;;;;;23.73;4.75;;;;;;;15.61;76.91;100706.31;5046155;28;20075;-76
2021/08/25 01:24:02;;;;;;;14.25;4.47;;;;;;;15.64;76.67;100683.59;5046250;28;20033;-76
2021/08/25 01:26:31;;;;;;;15.85;5.03;;;;;;;15.63;76.86;100672.25;5046322;28;20025;-76
2021/08/25 01:28:57;;;;;;;17.58;4.57;;;;;;;15.65;76.71;100674.81;5046508;28;20036;-76
2021/08/25 01:31:26;;;;;;;20.85;5.65;;;;;;;15.71;76.90;100669.44;5046155;28;20021;-75
2021/08/25 01:34:05;;;;;;;19.95;5.07;;;;;;;15.68;76.78;100645.97;5046326;28;20025;-75
2021/08/25 01:36:31;;;;;;;23.88;5.50;;;;;;;15.78;76.67;100650.06;5044837;28;20025;-75
2021/08/25 01:38:57;;;;;;;16.42;5.13;;;;;;;15.80;76.71;100648.25;5046076;28;20056;-74
2021/08/25 01:41:23;;;;;;;21.85;4.70;;;;;;;15.84;76.83;100649.03;5046673;28;20116;-75
2021/08/25 01:43:54;;;;;;;18.48;5.20;;;;;;;15.82;76.98;100646.47;5046373;28;20017;-75
2021/08/25 01:46:22;;;;;;;17.15;5.28;;;;;;;15.82;77.07;100638.59;5045941;28;20041;-76
2021/08/25 01:48:48;;;;;;;29.92;5.20;;;;;;;15.79;77.31;100617.75;5045728;28;20025;-75
2021/08/25 01:51:13;;;;;;;17.33;5.45;;;;;;;15.85;77.60;100625.44;5045791;28;20028;-75
2021/08/25 01:53:38;;;;;;;32.80;5.22;;;;;;;15.88;77.40;100618.41;5046468;28;20052;-75
2021/08/25 01:56:04;;;;;;;20.02;5.00;;;;;;;15.88;77.66;100615.78;5046368;28;20508;-75
2021/08/25 01:58:29;;;;;;;20.77;4.75;;;;;;;15.91;77.36;100613.09;5048366;28;20241;-76
2021/08/25 02:00:55;;;;;;;20.63;4.60;;;;;;;15.95;77.53;100610.34;5045686;28;20110;-75
2021/08/25 02:03:20;;;;;;;20.48;4.47;;;;;;;15.97;77.76;100590.22;5044239;28;20052;-74
2021/08/25 02:05:45;;;;;;;26.75;5.63;;;;;;;15.95;77.67;100567.56;5045672;28;20026;-74
2021/08/25 02:08:12;;;;;;;22.35;6.15;;;;;;;16.01;77.54;100562.19;5045633;28;20052;-75
2021/08/25 02:10:37;;;;;;;24.38;4.53;;;;;;;16.01;77.77;100570.03;5045317;28;20041;-75
2021/08/25 02:13:03;;;;;;;20.63;5.00;;;;;;;16.02;77.81;100545.59;5044046;28;20655;-75
2021/08/25 02:15:29;;;;;;;21.88;4.40;;;;;;;16.06;77.71;100531.50;5044022;28;20025;-75
2021/08/25 02:17:54;;;;;;;23.15;5.35;;;;;;;16.06;77.66;100523.66;5045618;28;20037;-74
2021/08/25 02:20:19;;;;;;;21.60;5.57;;;;;;;16.06;77.91;100523.66;5045226;28;20021;-76
2021/08/25 02:22:45;;;;;;;23.92;4.95;;;;;;;16.07;77.99;100507.03;5045209;28;20505;-75
2021/08/25 02:25:10;;;;;;;26.52;4.97;;;;;;;16.10;77.94;100504.31;5044980;28;20063;-74
2021/08/25 02:27:35;;;;;;;32.88;6.07;;;;;;;16.12;78.23;100492.94;5045075;28;20021;-74
2021/08/25 02:30:01;;;;;;;33.10;5.40;;;;;;;16.12;78.28;100503.44;5045044;28;20049;-73
2021/08/25 02:32:26;;;;;;;28.17;5.15;;;;;;;16.09;78.73;100494.75;5044943;28;20021;-75
2021/08/25 02:34:52;;;;;;;24.27;5.13;;;;;;;16.09;78.81;100502.59;5043623;28;20497;-74
2021/08/25 02:37:18;;;;;;;35.05;5.70;;;;;;;16.13;78.69;100492.91;5043553;28;20028;-75
2021/08/25 02:39:44;;;;;;;21.17;4.70;;;;;;;16.19;78.67;100486.59;5044897;28;20049;-75
2021/08/25 02:42:10;;;;;;;22.13;5.25;;;;;;;16.17;78.90;100475.31;5044778;28;20021;-74
2021/08/25 02:44:35;;;;;;;35.55;6.35;;;;;;;16.17;78.99;100463.09;5043326;28;20149;-74
2021/08/25 02:47:01;;;;;;;26.48;5.13;;;;;;;16.23;78.92;100472.50;5043267;28;20029;-75
2021/08/25 02:49:26;;;;;;;28.30;5.30;;;;;;;16.19;79.08;100468.28;5044730;28;20033;-74
2021/08/25 02:51:51;;;;;;;35.42;6.15;;;;;;;16.27;79.14;100468.91;5044426;28;20541;-74
2021/08/25 02:54:17;;;;;;;25.08;4.80;;;;;;;16.28;79.03;100457.50;5044628;28;20048;-75
2021/08/25 02:56:42;;;;;;;20.42;4.80;;;;;;;16.32;79.28;100456.53;5044635;28;20018;-74
2021/08/25 02:59:08;;;;;;;25.48;5.75;;;;;;;16.35;78.95;100442.44;5044688;28;20037;-74
2021/08/25 03:01:33;;;;;;;34.22;6.25;;;;;;;16.37;78.81;100440.66;5042359;28;20025;-74
2021/08/25 03:03:58;;;;;;;41.15;6.75;;;;;;;16.42;78.76;100443.13;5044541;28;20017;-74
2021/08/25 03:06:24;;;;;;;29.08;5.72;;;;;;;16.47;78.61;100438.56;5044338;28;20071;-74
2021/08/25 03:08:49;;;;;;;25.67;6.05;;;;;;;16.49;78.58;100436.75;5044067;28;20032;-78
2021/08/25 03:11:14;;;;;;;21.60;5.18;;;;;;;16.46;78.56;100431.63;5042663;28;20034;-72
2021/08/25 03:13:40;;;;;;;29.50;6.05;;;;;;;16.40;78.72;100422.22;5044247;28;20056;-74
2021/08/25 03:16:05;;;;;;;35.70;7.35;;;;;;;16.43;79.00;100426.47;5044321;28;20044;-73
2021/08/25 03:18:31;;;;;;;26.83;5.75;;;;;;;16.40;78.84;100418.72;5044292;28;20533;-74
2021/08/25 03:20:56;;;;;;;33.25;5.88;;;;;;;16.43;78.93;100422.09;5044046;28;20374;-74
2021/08/25 03:23:21;;;;;;;35.42;6.55;;;;;;;16.41;78.98;100404.72;5043988;28;20062;-74
2021/08/25 03:25:47;;;;;;;30.35;6.32;;;;;;;16.35;79.19;100393.53;5043987;28;20021;-73
2021/08/25 03:28:12;;;;;;;27.73;7.72;;;;;;;16.34;79.25;100383.94;5043905;28;20044;-73
2021/08/25 03:30:37;;;;;;;23.17;5.95;;;;;;;16.31;79.40;100375.34;5043753;28;20025;-74
2021/08/25 03:33:06;;;;;;;39.10;7.47;;;;;;;16.33;79.41;100379.63;5043498;28;20026;-73
2021/08/25 03:35:32;;;;;;;28.17;5.85;;;;;;;16.33;79.49;100360.44;5043700;28;20025;-73
2021/08/25 03:37:58;;;;;;;32.28;6.65;;;;;;;16.38;79.50;100347.16;5043809;28;20036;-73
2021/08/25 03:40:23;;;;;;;23.73;6.63;;;;;;;16.37;79.21;100332.38;5043646;28;20025;-74
2021/08/25 03:42:48;;;;;;;22.25;6.40;;;;;;;16.35;79.50;100328.06;5043835;28;20026;-75
2021/08/25 03:45:14;;;;;;;28.90;7.50;;;;;;;16.35;79.62;100335.91;5042363;28;20025;-74
2021/08/25 03:47:39;;;;;;;24.33;6.18;;;;;;;16.34;79.45;100331.56;5043910;28;20030;-74
2021/08/25 03:50:06;;;;;;;33.88;7.00;;;;;;;16.32;79.66;100329.91;5043547;28;20029;-74
2021/08/25 03:52:31;;;;;;;24.83;6.70;;;;;;;16.37;79.97;100337.59;5043422;28;20033;-74
2021/08/25 03:54:56;;;;;;;31.30;8.05;;;;;;;16.31;79.79;100322.97;5042160;28;20021;-76
2021/08/25 03:57:22;;;;;;;32.47;6.38;;;;;;;16.32;80.04;100322.06;5043537;28;20132;-74
2021/08/25 03:59:47;;;;;;;31.70;6.57;;;;;;;16.34;79.92;100318.47;5043582;28;20395;-74
2021/08/25 04:02:13;;;;;;;28.42;6.90;;;;;;;16.37;80.13;100333.25;5043375;28;20024;-74
2021/08/25 04:04:38;;;;;;;27.23;6.13;;;;;;;16.41;79.85;100323.50;5043460;28;20063;-76
2021/08/25 04:07:03;;;;;;;21.33;7.93;;;;;;;16.43;80.07;100321.69;5043360;28;20021;-73
2021/08/25 04:09:29;;;;;;;24.33;6.97;;;;;;;16.45;79.68;100310.22;5043091;28;20048;-73
2021/08/25 04:11:54;;;;;;;25.10;7.13;;;;;;;16.48;79.95;100311.91;5043131;28;20081;-74
2021/08/25 04:14:19;;;;;;;23.58;6.47;;;;;;;16.49;79.34;100310.97;5043530;28;20096;-73
2021/08/25 04:16:45;;;;;;;30.02;8.75;;;;;;;16.52;79.93;100316.13;5043298;28;20441;-73
2021/08/25 04:19:10;;;;;;;34.33;7.95;;;;;;;16.50;79.77;100307.47;5043345;28;20021;-74
2021/08/25 04:21:35;;;;;;;36.80;8.30;;;;;;;16.50;79.77;100297.00;5043444;28;20013;-75
2021/08/25 04:24:01;;;;;;;31.77;7.95;;;;;;;16.54;79.96;100292.47;5043179;28;20021;-74
2021/08/25 04:26:26;;;;;;;23.92;7.90;;;;;;;16.56;79.67;100278.44;5043358;28;20048;-74
2021/08/25 04:28:51;;;;;;;32.17;7.13;;;;;;;16.63;80.08;100265.09;5043200;28;20025;-74
2021/08/25 04:31:17;;;;;;;25.85;7.57;;;;;;;16.66;79.77;100252.72;5042795;28;20021;-75
2021/08/25 04:33:42;;;;;;;30.02;6.68;;;;;;;16.69;79.85;100254.41;5041975;28;20040;-73
2021/08/25 04:36:07;;;;;;;33.00;8.95;;;;;;;16.76;79.66;100265.50;5041914;28;20032;-73
2021/08/25 04:38:33;;;;;;;36.40;8.50;;;;;;;16.82;79.44;100262.66;5043179;28;20540;-73
2021/08/25 04:41:01;;;;;;;21.42;7.05;;;;;;;16.77;79.54;100252.34;5043338;28;20025;-77
2021/08/25 04:43:27;;;;;;;30.40;8.43;;;;;;;16.88;79.53;100261.56;5043037;28;20049;-75
2021/08/25 04:45:53;;;;;;;21.50;7.60;;;;;;;16.92;79.16;100250.91;5043107;28;20029;-75
2021/08/25 04:48:19;;;;;;;27.77;8.73;;;;;;;16.98;79.30;100247.22;5043010;28;20025;-73
2021/08/25 04:50:44;;;;;;;34.70;9.63;;;;;;;17.03;79.23;100239.19;5041876;28;20021;-70
2021/08/25 04:53:10;;;;;;;24.90;7.35;;;;;;;17.12;78.71;100241.47;5042780;28;20025;-70
2021/08/25 04:55:36;;;;;;;22.48;7.60;;;;;;;17.17;78.80;100243.91;5041548;28;20378;-71
2021/08/25 04:58:02;;;;;;;29.45;8.45;;;;;;;17.21;78.46;100248.13;5043134;28;20057;-70
2021/08/25 05:00:27;;;;;;;24.58;7.80;;;;;;;17.30;77.97;100234.63;5042727;28;20041;-70
2021/08/25 05:02:52;;;;;;;30.42;8.18;;;;;;;17.37;78.08;100240.50;5042596;28;20021;-70
2021/08/25 05:05:18;;;;;;;31.30;8.82;;;;;;;17.39;77.85;100227.31;5042553;28;20036;-69
2021/08/25 05:07:43;;;;;;;24.65;7.22;;;;;;;17.70;77.62;100226.94;5042842;28;20114;-65
2021/08/25 05:10:09;;;;;;;20.17;7.35;;;;;;;17.81;77.17;100210.72;5042431;28;20533;-62
2021/08/25 05:12:34;;;;;;;21.42;8.35;;;;;;;17.95;76.67;100211.94;5042610;28;20025;-63
2021/08/25 05:15:00;;;;;;;24.13;8.60;;;;;;;17.97;76.15;100212.72;5042858;28;20044;-62
2021/08/25 05:17:25;;;;;;;24.02;7.40;;;;;;;18.11;75.71;100220.00;5042396;28;20021;-63
2021/08/25 05:19:50;;;;;;;18.60;7.00;;;;;;;18.16;75.34;100222.47;5042697;28;20494;-64
2021/08/25 05:22:16;;;;;;;23.25;6.82;;;;;;;18.25;75.04;100211.53;5042666;28;20022;-65
2021/08/25 05:24:41;;;;;;;25.23;7.15;;;;;;;18.31;74.98;100211.28;5045176;28;20021;-65
2021/08/25 05:27:06;;;;;;;20.83;8.38;;;;;;;18.37;74.32;100209.31;5044894;28;20029;-66
2021/08/25 05:29:32;;;;;;;22.58;7.15;;;;;;;18.40;74.04;100207.38;5045407;28;20021;-66
2021/08/25 05:31:57;;;;;;;23.20;7.35;;;;;;;18.44;73.74;100210.72;5045806;28;20069;-65
2021/08/25 05:34:22;;;;;;;25.23;7.85;;;;;;;18.47;73.73;100212.38;5045962;28;20052;-65
2021/08/25 05:36:48;;;;;;;31.63;8.90;;;;;;;18.47;73.72;100200.06;5044819;28;20017;-64
2021/08/25 05:39:13;;;;;;;25.27;8.00;;;;;;;18.51;73.32;100191.16;5045899;28;20667;-65
2021/08/25 05:41:39;;;;;;;25.52;7.47;;;;;;;18.60;72.99;100186.38;5045903;28;20089;-65
2021/08/25 05:44:04;;;;;;;20.10;7.82;;;;;;;18.64;72.97;100191.41;5046076;28;20084;-65
2021/08/25 05:46:33;;;;;;;22.23;8.07;;;;;;;18.70;72.86;100179.78;5045987;28;20026;-64
2021/08/25 05:49:00;;;;;;;21.13;8.50;;;;;;;18.75;72.11;100174.31;5045861;28;20021;-64
2021/08/25 05:51:26;;;;;;;34.05;8.38;;;;;;;18.75;71.66;100172.53;5045541;28;20513;-65
2021/08/25 05:53:52;;;;;;;27.42;8.73;;;;;;;18.74;71.64;100170.81;5045722;28;20029;-65
2021/08/25 05:56:18;;;;;;;24.58;7.82;;;;;;;18.73;71.36;100168.25;5045731;28;20032;-65
2021/08/25 05:58:44;;;;;;;18.05;8.18;;;;;;;18.72;71.27;100164.78;5045612;28;20028;-65
2021/08/25 06:01:16;;;;;;;24.73;7.88;;;;;;;18.74;71.60;100156.84;5045407;28;20036;-65
2021/08/25 06:03:42;;;;;;;24.00;7.65;;;;;;;18.77;71.18;100144.38;5045030;28;20029;-64
2021/08/25 06:06:08;;;;;;;21.20;7.47;;;;;;;18.77;70.68;100149.63;5045389;28;20025;-64
2021/08/25 06:08:33;;;;;;;24.80;8.63;;;;;;;18.74;70.49;100152.41;5045532;28;20032;-63
2021/08/25 06:10:58;;;;;;;20.25;7.10;;;;;;;18.76;70.47;100140.03;5045062;28;20053;-64
2021/08/25 06:13:24;;;;;;;25.35;8.35;;;;;;;18.74;70.39;100128.75;5045447;28;20045;-64
2021/08/25 06:15:49;;;;;;;19.60;6.45;;;;;;;18.75;69.75;100119.94;5045382;28;20092;-65
2021/08/25 06:18:15;;;;;;;23.42;7.63;;;;;;;18.73;69.65;100137.56;5045528;28;20037;-65
2021/08/25 06:20:40;;;;;;;15.85;6.88;;;;;;;18.74;69.84;100126.09;5045247;28;20108;-65
2021/08/25 06:23:06;;;;;;;20.67;7.70;;;;;;;18.76;69.28;100136.56;5045406;28;20028;-65
2021/08/25 06:25:31;;;;;;;22.40;7.60;;;;;;;18.70;69.27;100122.78;5044996;28;20518;-64
2021/08/25 06:27:56;;;;;;;17.92;6.90;;;;;;;18.72;69.35;100130.59;5045214;28;20036;-63
2021/08/25 06:30:22;;;;;;;22.75;8.40;;;;;;;18.72;69.50;100113.97;5045009;28;20464;-64
2021/08/25 06:32:47;;;;;;;22.58;6.85;;;;;;;18.76;69.78;100126.03;5043611;28;20014;-64
2021/08/25 06:35:13;;;;;;;19.33;7.07;;;;;;;18.83;69.57;100128.28;5043950;28;20029;-64
2021/08/25 06:37:38;;;;;;;32.15;7.13;;;;;;;18.92;69.77;100127.03;5044739;28;20033;-64
2021/08/25 06:40:04;;;;;;;23.80;7.55;;;;;;;19.20;69.28;100115.16;5044894;28;20025;-64
2021/08/25 06:42:29;;;;;;;13.38;5.82;;;;;;;19.53;68.37;100108.31;5044663;28;20060;-64
2021/08/25 06:44:55;;;;;;;18.90;7.03;;;;;;;20.13;67.16;100111.41;5043261;28;20025;-64
2021/08/25 06:47:20;;;;;;;12.43;5.40;;;;;;;21.05;65.74;100106.41;5044975;28;20025;-64
2021/08/25 06:49:45;;;;;;;15.93;5.10;;;;;;;22.11;64.07;100103.78;5044564;28;20076;-64
2021/08/25 06:52:11;;;;;;;14.65;4.75;;;;;;;23.04;60.00;100102.34;5044698;28;20029;-65
2021/08/25 06:54:36;;;;;;;12.82;5.20;;;;;;;23.66;57.18;100093.91;5044437;28;20040;-65
2021/08/25 06:57:02;;;;;;;9.10;4.95;;;;;;;24.11;55.77;100085.47;5044355;28;20100;-65
2021/08/25 06:59:27;;;;;;;10.20;4.57;;;;;;;24.57;52.90;100091.13;5044252;28;20085;-64
2021/08/25 07:01:52;;;;;;;13.43;4.95;;;;;;;24.68;51.89;100083.19;5044162;28;20029;-64
2021/08/25 07:04:18;;;;;;;10.25;4.22;;;;;;;24.57;50.88;100088.47;5044388;28;20029;-64
2021/08/25 07:06:44;;;;;;;11.55;4.63;;;;;;;24.33;51.04;100081.34;5044215;28;20030;-64
2021/08/25 07:09:09;;;;;;;13.48;4.70;;;;;;;24.01;50.95;100086.13;5044042;28;20053;-64
2021/08/25 07:11:35;;;;;;;13.88;4.93;;;;;;;23.66;51.54;100068.25;5044127;28;20040;-64
2021/08/25 07:14:01;;;;;;;11.68;4.68;;;;;;;23.43;52.47;100070.69;5042811;28;20057;-64
2021/08/25 07:16:26;;;;;;;14.75;4.90;;;;;;;23.28;53.02;100081.34;5044302;28;20055;-64
2021/08/25 07:18:52;;;;;;;14.25;4.63;;;;;;;23.24;53.08;100060.47;5044320;28;20085;-64
2021/08/25 07:21:17;;;;;;;17.10;4.55;;;;;;;23.19;53.43;100079.31;5043802;28;20025;-65
2021/08/25 07:23:44;;;;;;;24.13;5.35;;;;;;;23.31;53.64;100082.09;5043612;28;20021;-64
2021/08/25 07:26:10;;;;;;;10.98;4.50;;;;;;;23.85;53.45;100069.63;5043931;28;20017;-65
2021/08/25 07:28:35;;;;;;;13.75;4.32;;;;;;;24.50;50.85;100074.81;5043852;28;20125;-65
2021/08/25 07:31:01;;;;;;;16.95;5.18;;;;;;;24.71;49.87;100067.06;5043819;28;20037;-65
2021/08/25 07:33:26;;;;;;;18.10;5.05;;;;;;;24.74;49.95;100061.53;5043684;28;20189;-65
2021/08/25 07:35:51;;;;;;;20.25;6.28;;;;;;;24.75;49.84;100075.66;5043804;28;20584;-65
2021/08/25 07:38:17;;;;;;;15.30;4.80;;;;;;;24.83;49.86;100064.44;5043866;28;20466;-65
2021/08/25 07:40:43;;;;;;;13.50;4.85;;;;;;;24.87;49.24;100074.72;5043790;28;20029;-64
2021/08/25 07:43:08;;;;;;;15.48;4.95;;;;;;;24.95;49.69;100074.19;5043466;28;20041;-65
2021/08/25 07:45:35;;;;;;;13.48;5.05;;;;;;;25.14;49.62;100078.13;5043661;28;20027;-65
2021/08/25 07:48:00;;;;;;;13.18;4.90;;;;;;;24.97;47.69;100074.06;5043577;28;20444;-64
2021/08/25 07:50:26;;;;;;;15.77;4.70;;;;;;;24.80;48.39;100077.94;5043697;28;20092;-64
2021/08/25 07:52:51;;;;;;;19.92;5.55;;;;;;;24.75;49.33;100070.34;5043076;28;20039;-64
2021/08/25 07:55:16;;;;;;;20.48;4.85;;;;;;;25.31;49.27;100063.56;5043338;28;20021;-64
2021/08/25 07:57:42;;;;;;;14.93;4.50;;;;;;;25.89;46.94;100067.16;5043389;28;20025;-64
2021/08/25 08:00:08;;;;;;;13.75;4.20;;;;;;;26.03;47.06;100062.53;5043542;28;20329;-64
2021/08/25 08:02:34;;;;;;;13.95;4.00;;;;;;;26.41;45.95;100055.13;5043357;28;20029;-66
2021/08/25 08:04:59;;;;;;;12.70;4.68;;;;;;;26.52;44.85;100052.44;5043422;28;20360;-67
2021/08/25 08:07:25;;;;;;;15.32;4.72;;;;;;;26.32;45.43;100057.56;5043505;28;20027;-66
2021/08/25 08:09:50;;;;;;;10.20;3.88;;;;;;;26.30;46.14;100043.50;5043139;28;20037;-67
2021/08/25 08:12:15;;;;;;;8.30;3.20;;;;;;;26.46;45.21;100036.97;5043009;28;20041;-67
2021/08/25 08:14:41;;;;;;;14.30;3.92;;;;;;;26.29;45.46;100039.19;5043111;28;20022;-67
2021/08/25 08:17:06;;;;;;;12.40;4.10;;;;;;;26.58;45.03;100035.13;5043309;28;20511;-66
2021/08/25 08:19:33;;;;;;;16.30;4.18;;;;;;;26.93;44.59;100027.81;5043106;28;20022;-67
2021/08/25 08:22:00;;;;;;;15.93;4.40;;;;;;;27.48;43.84;100026.75;5043033;28;20353;-67
2021/08/25 08:24:27;;;;;;;17.88;4.22;;;;;;;27.98;42.69;100021.66;5041942;28;20539;-67
2021/08/25 08:26:53;;;;;;;14.70;4.75;;;;;;;28.45;41.74;100016.56;5043306;28;20350;-66
2021/08/25 08:29:19;;;;;;;14.77;4.70;;;;;;;28.73;40.56;100020.34;5043221;28;20026;-66
2021/08/25 08:31:44;;;;;;;8.05;3.75;;;;;;;28.87;40.41;100024.44;5042943;28;20029;-67
2021/08/25 08:34:10;;;;;;;12.85;4.88;;;;;;;29.17;40.02;100014.56;5043005;28;20072;-67
2021/08/25 08:36:35;;;;;;;9.27;3.75;;;;;;;29.60;39.48;100006.16;5043139;28;20022;-67
2021/08/25 08:39:01;;;;;;;14.25;4.75;;;;;;;30.18;38.90;100014.81;5043132;28;20105;-67
2021/08/25 08:41:26;;;;;;;12.88;4.40;;;;;;;30.90;37.02;100015.84;5041681;28;20112;-67
2021/08/25 08:43:52;;;;;;;12.88;3.55;;;;;;;31.28;36.17;99994.13;5043167;28;20021;-67
2021/08/25 08:46:20;;;;;;;10.93;3.67;;;;;;;31.60;35.19;99991.81;5043136;28;20029;-68
2021/08/25 08:48:47;;;;;;;10.65;3.70;;;;;;;31.58;34.06;99989.28;5043264;28;20085;-68
2021/08/25 08:51:17;;;;;;;10.45;3.55;;;;;;;31.53;34.10;99989.78;5042748;28;20021;-67
2021/08/25 08:53:43;;;;;;;7.53;2.85;;;;;;;31.54;34.50;99988.78;5041833;28;20031;-68
2021/08/25 08:56:09;;;;;;;10.77;4.00;;;;;;;31.84;33.55;99988.34;5042851;28;20028;-66
2021/08/25 08:58:38;;;;;;;11.85;3.80;;;;;;;32.10;33.32;99982.06;5043962;28;20056;-66
2021/08/25 09:01:03;;;;;;;7.75;3.75;;;;;;;32.22;32.44;99982.59;5046748;28;20089;-66
2021/08/25 09:03:29;;;;;;;9.20;3.10;;;;;;;32.39;32.48;99985.28;5046934;28;20017;-66
2021/08/25 09:06:00;;;;;;;7.47;3.40;;;;;;;32.56;31.89;99979.97;5045263;28;20132;-67
2021/08/25 09:08:30;;;;;;;8.07;2.78;;;;;;;32.61;31.97;99969.53;5046525;28;20080;-67
2021/08/25 09:11:15;;;;;;;9.18;3.42;;;;;;;32.95;31.31;99973.03;5046335;28;20401;-69
2021/08/25 09:13:51;;;;;;;8.15;2.97;;;;;;;33.08;30.47;99962.63;5046611;28;20409;-70
2021/08/25 09:16:28;;;;;;;9.70;2.90;;;;;;;33.25;30.07;99965.25;5046501;28;20045;-69
2021/08/25 09:19:06;;;;;;;8.55;2.97;;;;;;;32.93;29.81;99951.69;5046520;28;20026;-69
2021/08/25 09:21:34;;;;;;;7.82;2.78;;;;;;;32.13;30.85;99959.41;5046372;28;20100;-69
2021/08/25 09:24:00;;;;;;;8.57;2.60;;;;;;;31.83;32.22;99959.00;5046256;28;20054;-70
2021/08/25 09:26:25;;;;;;;6.55;2.63;;;;;;;32.30;31.53;99956.75;5046316;28;20029;-70
2021/08/25 09:28:51;;;;;;;9.18;3.45;;;;;;;32.73;31.10;99957.44;5046263;28;20036;-70
2021/08/25 09:31:17;;;;;;;8.77;3.28;;;;;;;33.13;30.14;99948.66;5046258;28;20029;-70
2021/08/25 09:33:46;;;;;;;6.93;3.05;;;;;;;33.13;30.26;99940.59;5046396;28;20022;-70
2021/08/25 09:36:15;;;;;;;7.65;2.50;;;;;;;33.26;30.21;99931.97;5046181;28;20052;-69
2021/08/25 09:38:54;;;;;;;10.18;3.22;;;;;;;33.69;29.37;99930.78;5044819;28;20037;-68
2021/08/25 09:41:20;;;;;;;10.90;2.90;;;;;;;33.99;29.08;99922.84;5045865;28;20026;-69
2021/08/25 09:43:50;;;;;;;7.82;2.78;;;;;;;34.11;28.26;99921.41;5044900;28;20037;-70
2021/08/25 09:46:25;;;;;;;7.57;2.77;;;;;;;34.15;28.40;99915.66;5046213;28;20029;-70
2021/08/25 09:48:56;;;;;;;6.43;2.50;;;;;;;34.40;28.55;99915.47;5045896;28;20286;-70
2021/08/25 09:51:26;;;;;;;8.05;3.35;;;;;;;34.27;28.43;99908.84;5045814;28;20028;-70
2021/08/25 09:54:04;;;;;;;9.25;2.55;;;;;;;34.48;27.90;99910.00;5045851;28;20040;-71
2021/08/25 09:56:33;;;;;;;8.35;3.08;;;;;;;34.74;27.87;99892.59;5045836;28;20056;-70
2021/08/25 09:59:00;;;;;;;8.32;2.95;;;;;;;34.15;27.77;99902.19;5044382;28;20022;-70
2021/08/25 10:01:26;;;;;;;8.27;3.08;;;;;;;33.18;28.94;99884.41;5045640;28;20022;-70
2021/08/25 10:03:52;;;;;;;9.75;2.42;;;;;;;33.59;29.78;99887.91;5045647;28;20025;-71
2021/08/25 10:06:19;;;;;;;8.10;2.15;;;;;;;34.12;28.60;99877.28;5046077;28;20032;-70
2021/08/25 10:08:46;;;;;;;6.60;2.38;;;;;;;34.35;27.24;99881.00;5045462;28;20032;-72
2021/08/25 10:11:12;;;;;;;9.13;3.15;;;;;;;32.63;29.13;99876.19;5045285;28;20041;-72
2021/08/25 10:13:39;;;;;;;10.55;2.50;;;;;;;32.05;30.96;99874.34;5045706;28;20039;-72
2021/08/25 10:16:09;;;;;;;8.27;2.50;;;;;;;32.46;30.40;99880.72;5045537;28;20026;-72
2021/08/25 10:18:37;;;;;;;5.72;2.42;;;;;;;31.82;30.30;99877.69;5046186;28;20466;-70
2021/08/25 10:21:23;;;;;;;6.35;1.95;;;;;;;31.07;31.56;99868.56;5045272;28;20461;-68
2021/08/25 10:23:58;;;;;;;9.07;2.78;;;;;;;30.97;32.68;99869.53;5045186;28;20036;-70
2021/08/25 10:26:25;;;;;;;6.95;3.00;;;;;;;30.41;33.52;99870.69;5045066;28;20028;-70
2021/08/25 10:28:59;;;;;;;6.85;2.05;;;;;;;29.26;32.80;99887.22;5044918;28;20029;-68
2021/08/25 10:31:49;;;;;;;5.97;2.67;;;;;;;27.52;34.30;99881.59;5045047;28;20025;-73
2021/08/25 10:34:24;;;;;;;4.38;2.50;;;;;;;26.17;36.16;99881.41;5045101;28;20088;-71
2021/08/25 10:36:50;;;;;;;7.55;2.60;;;;;;;25.48;39.01;99889.53;5044678;28;20026;-71
2021/08/25 10:39:31;;;;;;;5.88;2.55;;;;;;;25.91;39.55;99899.50;5044852;28;20544;-71
2021/08/25 10:41:57;;;;;;;7.43;2.88;;;;;;;25.58;39.39;99888.78;5044854;28;20025;-70
2021/08/25 10:44:38;;;;;;;7.13;3.58;;;;;;;24.67;41.18;99879.81;5044946;28;20034;-71
2021/08/25 10:47:08;;;;;;;5.13;2.47;;;;;;;23.91;42.53;99888.94;5044697;28;20123;-69
2021/08/25 10:49:42;;;;;;;8.13;2.78;;;;;;;23.25;44.20;99887.38;5042985;28;20374;-68
2021/08/25 10:52:13;;;;;;;5.95;2.72;;;;;;;22.87;44.45;99886.47;5044269;28;20238;-68
2021/08/25 10:54:38;;;;;;;3.63;2.37;;;;;;;22.62;43.54;99873.09;5044603;28;20028;-67
2021/08/25 10:57:09;;;;;;;6.85;2.70;;;;;;;22.48;44.32;99870.50;5044860;28;20254;-68
2021/08/25 10:59:35;;;;;;;4.82;2.50;;;;;;;22.60;44.47;99872.38;5044489;28;20113;-68
2021/08/25 11:02:00;;;;;;;4.05;2.70;;;;;;;22.70;43.97;99869.09;5044232;28;20063;-68
2021/08/25 11:04:26;;;;;;;7.00;2.60;;;;;;;23.24;43.60;99875.09;5044448;28;20051;-68
2021/08/25 11:06:55;;;;;;;7.10;2.35;;;;;;;24.48;41.52;99862.66;5044507;28;20053;-67
2021/08/25 11:09:26;;;;;;;5.38;2.35;;;;;;;25.99;38.73;99851.88;5044285;28;20049;-68
2021/08/25 11:11:56;;;;;;;3.33;2.10;;;;;;;26.87;34.63;99856.06;5044196;28;20028;-68
2021/08/25 11:14:27;;;;;;;3.10;2.15;;;;;;;26.81;33.62;99852.13;5042874;28;20055;-67
2021/08/25 11:16:58;;;;;;;5.00;2.75;;;;;;;25.85;35.15;99852.97;5044213;28;20049;-67
2021/08/25 11:19:26;;;;;;;3.92;2.30;;;;;;;24.90;36.67;99847.19;5043218;28;20025;-67